Bellmead, Texas
Current Conditions -  °F | °C
As of 1:55 PM on Thursday 18 Dec 2014 (Local Time) from KCNW Reporting Station
Haze Haze  
Wind Chill: 54°   Ceiling: 700
Heat Index: 54°   Visibility: 5mi
Dew Point: 50°   Wind: 7mph
Humidity: 88%   Direction: 330°NNW
Pressure: 30.1"   Gusts: NA
Location:  31.6031°N, 97.0805°W
Report Text: KCNW 181955Z 33006KT 5SM BR OVC007 12/10 A3010
Loading
Personal Weather Stations






























Interactive Weather Map New forecast layout! Learn more

10-Day Weather Forecast

Advertisements
Track Severe Weather on mobile